createdAt,value
2023-02-13T00:01:40.004Z,-0.96
2023-02-13T00:04:52.648Z,-0.91
2023-02-13T00:08:05.205Z,-0.83
2023-02-13T00:11:17.847Z,-0.82
2023-02-13T00:14:30.174Z,-0.94
2023-02-13T00:17:42.853Z,-0.93
2023-02-13T00:21:05.922Z,-0.98
2023-02-13T00:24:18.524Z,-1.05
2023-02-13T00:27:30.885Z,-1.11
2023-02-13T00:30:43.539Z,-1.15
2023-02-13T00:33:55.924Z,-1.16
2023-02-13T00:37:08.519Z,-1.20
2023-02-13T00:40:21.111Z,-1.16
2023-02-13T00:43:33.873Z,-1.23
2023-02-13T00:46:46.238Z,-1.17
2023-02-13T00:49:58.837Z,-1.27
2023-02-13T00:53:11.214Z,-1.34
2023-02-13T00:56:23.878Z,-1.39
2023-02-13T00:59:36.217Z,-1.36
2023-02-13T01:02:48.840Z,-1.44
2023-02-13T01:06:01.213Z,-1.44
2023-02-13T01:09:13.835Z,-1.48
2023-02-13T01:12:26.233Z,-1.55
2023-02-13T01:15:39.554Z,-1.62
2023-02-13T01:18:51.920Z,-1.67
2023-02-13T01:22:04.539Z,-1.64
2023-02-13T01:25:16.963Z,-1.71
2023-02-13T01:28:29.738Z,-1.65
2023-02-13T01:31:42.227Z,-1.69
2023-02-13T01:34:54.918Z,-1.69
2023-02-13T01:38:07.503Z,-1.89
2023-02-13T01:41:20.209Z,-1.80
2023-02-13T01:44:53.607Z,-1.70
2023-02-13T01:48:08.576Z,-1.71
2023-02-13T01:51:24.141Z,-1.75
2023-02-13T01:54:39.356Z,-1.77
2023-02-13T01:57:58.709Z,-1.80
2023-02-13T02:01:11.351Z,-1.86
2023-02-13T02:04:34.860Z,-1.96
2023-02-13T02:07:48.653Z,-1.88
2023-02-13T02:11:11.300Z,-2.00
2023-02-13T02:14:23.489Z,-2.11
2023-02-13T02:17:36.013Z,-2.01
2023-02-13T02:20:57.616Z,-2.06
2023-02-13T02:24:30.776Z,-2.11
2023-02-13T02:28:04.924Z,-2.12
2023-02-13T02:31:55.435Z,-2.11
2023-02-13T02:35:26.697Z,-2.17
2023-02-13T02:38:39.391Z,-2.06
2023-02-13T02:42:06.869Z,-2.16
2023-02-13T02:45:27.107Z,-2.29
2023-02-13T02:49:16.297Z,-2.27
2023-02-13T02:52:57.050Z,-2.27
2023-02-13T02:56:23.711Z,-2.32
2023-02-13T02:59:54.941Z,-2.34
2023-02-13T03:03:37.111Z,-2.33
2023-02-13T03:06:54.978Z,-2.46
2023-02-13T03:10:34.427Z,-2.46
2023-02-13T03:13:47.511Z,-2.44
2023-02-13T03:17:18.468Z,-2.55
2023-02-13T03:21:02.100Z,-2.58
2023-02-13T03:24:17.829Z,-2.60
2023-02-13T03:28:13.172Z,-2.62
2023-02-13T03:31:31.690Z,-2.60
2023-02-13T03:35:07.060Z,-2.70
2023-02-13T03:38:32.650Z,-2.51
2023-02-13T03:41:54.169Z,-2.54
2023-02-13T03:45:49.927Z,-2.69
2023-02-13T03:49:25.355Z,-2.71
2023-02-13T03:53:03.909Z,-2.67
2023-02-13T03:56:35.504Z,-2.71
2023-02-13T03:59:57.265Z,-2.71
2023-02-13T04:03:26.439Z,-2.70
2023-02-13T04:06:58.188Z,-2.79
2023-02-13T04:10:12.134Z,-2.81
2023-02-13T04:13:29.015Z,-2.74
2023-02-13T04:16:47.703Z,-2.75
2023-02-13T04:20:00.450Z,-2.80
2023-02-13T04:23:12.801Z,-2.74
2023-02-13T04:26:33.998Z,-2.73
2023-02-13T04:29:46.374Z,-2.78
2023-02-13T04:32:59.000Z,-2.75
2023-02-13T04:36:11.347Z,-2.85
2023-02-13T04:39:24.004Z,-2.85
2023-02-13T04:42:36.364Z,-2.96
2023-02-13T04:45:49.604Z,-2.84
2023-02-13T04:49:02.045Z,-2.88
2023-02-13T04:52:15.640Z,-2.77
2023-02-13T04:55:28.196Z,-2.75
2023-02-13T04:58:42.101Z,-2.89
2023-02-13T05:01:54.430Z,-2.99
2023-02-13T05:05:07.152Z,-3.04
2023-02-13T05:08:19.881Z,-3.05
2023-02-13T05:11:32.498Z,-3.10
2023-02-13T05:14:44.844Z,-2.95
2023-02-13T05:17:57.433Z,-3.05
2023-02-13T05:21:28.433Z,-2.91
2023-02-13T05:24:41.071Z,-2.91
2023-02-13T05:27:53.453Z,-2.95
2023-02-13T05:31:06.201Z,-2.99
2023-02-13T05:34:18.818Z,-3.09
2023-02-13T05:37:31.862Z,-3.05
2023-02-13T05:40:44.209Z,-3.32
2023-02-13T05:43:56.890Z,-3.08
2023-02-13T05:47:09.206Z,-3.12
2023-02-13T05:50:21.843Z,-3.16
2023-02-13T05:53:36.999Z,-2.99
2023-02-13T05:56:49.697Z,-3.20
2023-02-13T06:00:02.271Z,-3.21
2023-02-13T06:03:17.802Z,-2.97
2023-02-13T06:06:30.426Z,-3.09
2023-02-13T06:09:43.231Z,-2.96
2023-02-13T06:12:55.851Z,-2.88
2023-02-13T06:16:11.730Z,-2.82
2023-02-13T06:19:24.415Z,-3.03
2023-02-13T06:22:36.808Z,-2.99
2023-02-13T06:25:49.416Z,-2.98
2023-02-13T06:29:01.849Z,-2.87
2023-02-13T06:32:14.543Z,-2.62
2023-02-13T06:35:27.103Z,-2.62
2023-02-13T06:38:39.794Z,-2.32
2023-02-13T06:41:52.156Z,-2.17
2023-02-13T06:45:05.719Z,-2.22
2023-02-13T06:48:18.090Z,-2.18
2023-02-13T06:51:30.891Z,-2.12
2023-02-13T06:54:47.860Z,-2.11
2023-02-13T06:58:00.802Z,-1.89
2023-02-13T07:01:13.179Z,-2.00
2023-02-13T07:04:25.898Z,-1.95
2023-02-13T07:07:39.319Z,-1.78
2023-02-13T07:10:51.960Z,-1.14
2023-02-13T07:14:04.281Z,-1.47
2023-02-13T07:17:17.095Z,-1.31
2023-02-13T07:20:29.624Z,-1.32
2023-02-13T07:23:42.405Z,-1.19
2023-02-13T07:26:54.723Z,-1.13
2023-02-13T07:30:07.943Z,-0.86
2023-02-13T07:33:20.395Z,-0.55
2023-02-13T07:36:33.053Z,-0.37
2023-02-13T07:39:45.431Z,-0.27
2023-02-13T07:43:01.158Z,-0.24
2023-02-13T07:46:13.625Z,0.02
2023-02-13T07:49:26.271Z,0.32
2023-02-13T07:52:38.737Z,0.62
2023-02-13T07:55:51.428Z,0.90
2023-02-13T07:59:03.778Z,0.98
2023-02-13T08:02:16.600Z,1.05
2023-02-13T08:05:29.829Z,1.13
2023-02-13T08:08:42.177Z,1.24
2023-02-13T08:11:54.847Z,1.25
2023-02-13T08:15:08.012Z,1.47
2023-02-13T08:18:20.708Z,1.60
2023-02-13T08:21:33.198Z,1.71
2023-02-13T08:24:46.053Z,1.86
2023-02-13T08:28:02.149Z,1.93
2023-02-13T08:31:14.969Z,2.01
2023-02-13T08:34:27.695Z,1.96
2023-02-13T08:37:40.354Z,2.03
2023-02-13T08:40:57.431Z,2.24
2023-02-13T08:44:10.786Z,2.47
2023-02-13T08:47:23.109Z,2.45
2023-02-13T08:50:37.474Z,2.50
2023-02-13T08:53:50.073Z,2.69
2023-02-13T08:57:02.778Z,2.77
2023-02-13T09:00:15.515Z,2.90
2023-02-13T09:03:28.336Z,2.82
2023-02-13T09:06:40.786Z,2.86
2023-02-13T09:09:53.423Z,3.04
2023-02-13T09:13:05.900Z,3.27
2023-02-13T09:16:18.572Z,3.15
2023-02-13T09:19:30.956Z,3.41
2023-02-13T09:22:43.570Z,3.37
2023-02-13T09:25:58.591Z,3.26
2023-02-13T09:29:11.364Z,3.60
2023-02-13T09:32:23.699Z,3.47
2023-02-13T09:35:36.410Z,3.61
2023-02-13T09:38:51.815Z,3.70
2023-02-13T09:42:17.817Z,3.92
2023-02-13T09:45:30.165Z,3.94
2023-02-13T09:48:45.489Z,3.99
2023-02-13T09:51:57.877Z,4.14
2023-02-13T09:55:18.538Z,4.34
2023-02-13T09:58:40.760Z,4.45
2023-02-13T10:01:53.504Z,4.74
2023-02-13T10:05:44.485Z,4.82
2023-02-13T10:09:06.002Z,4.74
2023-02-13T10:12:40.458Z,4.64
2023-02-13T10:15:58.057Z,4.89
2023-02-13T10:19:16.482Z,4.85
2023-02-13T10:22:38.271Z,4.72
2023-02-13T10:25:59.189Z,4.95
2023-02-13T10:30:03.068Z,4.93
2023-02-13T10:33:26.341Z,5.18
2023-02-13T10:36:40.781Z,5.45
2023-02-13T10:39:54.192Z,5.22
2023-02-13T10:43:10.122Z,5.18
2023-02-13T10:46:29.112Z,5.36
2023-02-13T10:50:09.097Z,5.66
2023-02-13T10:53:44.249Z,5.49
2023-02-13T10:57:17.537Z,5.99
2023-02-13T11:00:45.838Z,6.24
2023-02-13T11:04:12.309Z,6.51
2023-02-13T11:07:25.488Z,6.27
2023-02-13T11:10:37.826Z,6.32
2023-02-13T11:13:54.559Z,6.43
2023-02-13T11:17:06.996Z,6.13
2023-02-13T11:20:32.999Z,6.14
2023-02-13T11:23:54.851Z,5.99
2023-02-13T11:27:09.486Z,6.11
2023-02-13T11:30:21.836Z,6.48
2023-02-13T11:33:34.437Z,6.58
2023-02-13T11:36:47.123Z,6.34
2023-02-13T11:40:00.196Z,6.50
2023-02-13T11:43:29.111Z,6.85
2023-02-13T11:46:49.529Z,7.34
2023-02-13T11:50:01.958Z,7.38
2023-02-13T11:53:23.300Z,7.35
2023-02-13T11:57:03.982Z,7.61
2023-02-13T12:00:28.637Z,7.28
2023-02-13T12:03:41.383Z,7.34
2023-02-13T12:07:04.639Z,7.53
2023-02-13T12:10:25.453Z,7.85
2023-02-13T12:13:41.329Z,7.90
2023-02-13T12:17:25.552Z,7.80
2023-02-13T12:21:01.072Z,7.91
2023-02-13T12:24:28.784Z,7.72
2023-02-13T12:28:11.213Z,7.87
2023-02-13T12:31:57.981Z,7.97
2023-02-13T12:35:32.366Z,7.75
2023-02-13T12:39:12.035Z,7.62
2023-02-13T12:42:50.417Z,7.71
2023-02-13T12:46:29.909Z,7.93
2023-02-13T12:49:49.133Z,7.99
2023-02-13T12:53:36.309Z,7.97
2023-02-13T12:57:02.646Z,8.18
2023-02-13T13:00:52.828Z,7.86
2023-02-13T13:04:13.905Z,8.30
2023-02-13T13:07:41.738Z,7.92
2023-02-13T13:11:15.488Z,7.79
2023-02-13T13:14:46.762Z,8.28
2023-02-13T13:18:03.972Z,8.10
2023-02-13T13:21:25.675Z,8.17
2023-02-13T13:24:51.608Z,8.47
2023-02-13T13:28:29.732Z,9.27
2023-02-13T13:31:42.137Z,8.17
2023-02-13T13:34:55.049Z,8.24
2023-02-13T13:38:21.627Z,8.47
2023-02-13T13:42:02.524Z,8.42
2023-02-13T13:45:36.711Z,8.82
2023-02-13T13:49:14.154Z,9.12
2023-02-13T13:52:34.181Z,8.52
2023-02-13T13:55:49.671Z,8.77
2023-02-13T13:59:02.057Z,8.57
2023-02-13T14:02:18.799Z,9.25
2023-02-13T14:05:32.869Z,9.72
2023-02-13T14:08:45.109Z,9.59
2023-02-13T14:11:58.568Z,9.16
2023-02-13T14:15:37.709Z,9.12
2023-02-13T14:18:51.427Z,9.05
2023-02-13T14:22:19.106Z,9.22
2023-02-13T14:25:32.362Z,9.59
2023-02-13T14:28:50.635Z,10.20
2023-02-13T14:32:17.706Z,10.06
2023-02-13T14:35:31.135Z,9.55
2023-02-13T14:38:43.791Z,9.95
2023-02-13T14:42:03.594Z,9.34
2023-02-13T14:45:21.154Z,9.47
2023-02-13T14:48:46.498Z,9.55
2023-02-13T14:52:01.186Z,9.84
2023-02-13T14:55:13.767Z,9.47
2023-02-13T14:58:32.518Z,10.37
2023-02-13T15:01:52.473Z,9.33
2023-02-13T15:05:07.661Z,9.28
2023-02-13T15:08:25.464Z,8.67
2023-02-13T15:11:43.155Z,8.95
2023-02-13T15:14:55.486Z,8.64
2023-02-13T15:18:09.834Z,8.69
2023-02-13T15:21:23.159Z,8.30
2023-02-13T15:24:39.434Z,8.45
2023-02-13T15:27:54.824Z,8.22
2023-02-13T15:31:21.151Z,8.31
2023-02-13T15:34:34.412Z,8.32
2023-02-13T15:37:47.085Z,7.82
2023-02-13T15:41:07.595Z,7.69
2023-02-13T15:44:22.616Z,7.67
2023-02-13T15:47:36.522Z,7.84
2023-02-13T15:50:49.184Z,7.63
2023-02-13T15:54:03.425Z,7.42
2023-02-13T15:57:16.426Z,7.45
2023-02-13T16:00:39.948Z,7.32
2023-02-13T16:04:02.426Z,7.12
2023-02-13T16:07:14.843Z,7.04
2023-02-13T16:10:32.077Z,6.92
2023-02-13T16:13:56.319Z,6.69
2023-02-13T16:17:16.938Z,6.42
2023-02-13T16:20:30.381Z,6.06
2023-02-13T16:23:44.509Z,6.01
2023-02-13T16:26:56.835Z,5.85
2023-02-13T16:30:37.759Z,5.79
2023-02-13T16:33:50.113Z,5.65
2023-02-13T16:37:02.730Z,5.61
2023-02-13T16:40:38.467Z,5.46
2023-02-13T16:44:03.666Z,5.36
2023-02-13T16:47:25.008Z,5.23
2023-02-13T16:50:37.678Z,5.25
2023-02-13T16:53:59.325Z,5.20
2023-02-13T16:57:14.916Z,4.99
2023-02-13T17:00:28.181Z,4.87
2023-02-13T17:03:40.805Z,4.81
2023-02-13T17:06:56.146Z,4.78
2023-02-13T17:10:17.605Z,4.65
2023-02-13T17:13:30.058Z,4.63
2023-02-13T17:16:42.734Z,4.42
2023-02-13T17:19:55.072Z,4.26
2023-02-13T17:23:08.107Z,4.24
2023-02-13T17:26:20.493Z,4.18
2023-02-13T17:29:33.133Z,4.14
2023-02-13T17:32:45.856Z,4.07
2023-02-13T17:35:58.482Z,4.00
2023-02-13T17:39:10.945Z,3.98
2023-02-13T17:42:28.250Z,3.92
2023-02-13T17:45:40.668Z,3.87
2023-02-13T17:48:53.286Z,3.78
2023-02-13T17:52:05.639Z,3.79
2023-02-13T17:55:24.527Z,3.78
2023-02-13T17:58:36.847Z,3.81
2023-02-13T18:01:49.592Z,3.78
2023-02-13T18:05:02.742Z,3.85
2023-02-13T18:08:15.197Z,3.91
2023-02-13T18:11:27.864Z,3.87
2023-02-13T18:14:40.188Z,3.80
2023-02-13T18:17:52.764Z,3.70
2023-02-13T18:21:05.185Z,3.61
2023-02-13T18:24:17.792Z,3.43
2023-02-13T18:27:30.140Z,3.33
2023-02-13T18:30:42.895Z,3.27
2023-02-13T18:33:55.448Z,3.25
2023-02-13T18:37:09.656Z,3.12
2023-02-13T18:40:22.552Z,3.08
2023-02-13T18:43:35.242Z,3.08
2023-02-13T18:46:47.599Z,3.15
2023-02-13T18:50:00.234Z,3.03
2023-02-13T18:53:12.659Z,2.80
2023-02-13T18:56:25.444Z,2.68
2023-02-13T18:59:37.784Z,2.57
2023-02-13T19:02:50.406Z,2.45
2023-02-13T19:06:10.762Z,2.40
2023-02-13T19:09:23.360Z,2.24
2023-02-13T19:12:36.744Z,2.23
2023-02-13T19:15:49.417Z,1.95
2023-02-13T19:19:03.027Z,1.95
2023-02-13T19:22:15.854Z,1.97
2023-02-13T19:25:28.226Z,1.73
2023-02-13T19:28:40.904Z,1.66
2023-02-13T19:31:53.292Z,1.37
2023-02-13T19:35:06.279Z,1.40
2023-02-13T19:38:19.453Z,1.38
2023-02-13T19:41:32.986Z,1.36
2023-02-13T19:44:45.445Z,1.43
2023-02-13T19:47:58.314Z,1.27
2023-02-13T19:51:12.112Z,1.22
2023-02-13T19:54:24.742Z,1.03
2023-02-13T19:57:37.132Z,0.93
2023-02-13T20:00:49.788Z,0.83
2023-02-13T20:04:02.457Z,0.74
2023-02-13T20:07:14.812Z,0.78
2023-02-13T20:10:27.407Z,0.49
2023-02-13T20:13:39.896Z,0.52
2023-02-13T20:16:52.517Z,0.56
2023-02-13T20:20:05.349Z,0.53
2023-02-13T20:23:18.615Z,0.56
2023-02-13T20:26:31.061Z,0.53
2023-02-13T20:29:43.677Z,0.48
2023-02-13T20:32:56.053Z,0.42
2023-02-13T20:36:24.663Z,0.95
2023-02-13T20:39:37.007Z,1.26
2023-02-13T20:42:49.686Z,1.22
2023-02-13T20:46:02.090Z,1.12
2023-02-13T20:49:21.864Z,1.09
2023-02-13T20:52:34.588Z,1.23
2023-02-13T20:55:47.246Z,1.06
2023-02-13T20:58:59.976Z,0.87
2023-02-13T21:02:12.688Z,0.59
2023-02-13T21:05:25.257Z,0.51
2023-02-13T21:08:37.948Z,0.49
2023-02-13T21:11:50.352Z,0.30
2023-02-13T21:15:03.003Z,0.33
2023-02-13T21:18:15.600Z,0.19
2023-02-13T21:21:31.374Z,0.18
2023-02-13T21:24:43.709Z,0.06
2023-02-13T21:27:56.461Z,-0.04
2023-02-13T21:31:14.187Z,-0.14
2023-02-13T21:34:26.955Z,-0.10
2023-02-13T21:37:39.339Z,-0.23
2023-02-13T21:40:52.004Z,-0.36
2023-02-13T21:44:04.465Z,-0.33
2023-02-13T21:47:17.107Z,-0.43
2023-02-13T21:50:29.463Z,-0.35
2023-02-13T21:53:42.226Z,-0.17
2023-02-13T21:56:54.525Z,-0.12
2023-02-13T22:00:10.426Z,-0.26
2023-02-13T22:03:24.672Z,-0.24
2023-02-13T22:06:39.119Z,-0.36
2023-02-13T22:09:51.462Z,-0.40
2023-02-13T22:13:05.118Z,-0.68
2023-02-13T22:16:17.462Z,-0.61
2023-02-13T22:19:30.118Z,-0.66
2023-02-13T22:22:42.515Z,-0.66
2023-02-13T22:25:55.143Z,-0.69
2023-02-13T22:29:09.058Z,-0.62
2023-02-13T22:32:21.750Z,-0.62
2023-02-13T22:35:40.583Z,-0.68
2023-02-13T22:38:53.225Z,-0.65
2023-02-13T22:42:05.633Z,-0.72
2023-02-13T22:45:18.244Z,-0.77
2023-02-13T22:48:31.071Z,-0.67
2023-02-13T22:51:43.704Z,-0.69
2023-02-13T22:54:56.077Z,-0.62
2023-02-13T22:58:08.700Z,-0.61
2023-02-13T23:01:22.162Z,-0.51
2023-02-13T23:04:34.827Z,-0.41
2023-02-13T23:07:47.205Z,-0.39
2023-02-13T23:11:22.442Z,-0.35
2023-02-13T23:14:34.790Z,-0.23
2023-02-13T23:18:05.825Z,-0.70
2023-02-13T23:21:18.332Z,-0.77
2023-02-13T23:24:31.109Z,-0.82
2023-02-13T23:27:43.666Z,-0.99
2023-02-13T23:30:56.417Z,-0.98
2023-02-13T23:34:08.948Z,-0.93
2023-02-13T23:37:21.605Z,-0.86
2023-02-13T23:40:33.973Z,-0.72
2023-02-13T23:43:46.549Z,-0.74
2023-02-13T23:46:58.880Z,-0.84
2023-02-13T23:50:11.532Z,-0.80
2023-02-13T23:53:23.897Z,-0.90
2023-02-13T23:56:36.493Z,-0.86
2023-02-13T23:59:48.815Z,-0.83
